Menu Close Menu
Station Historical Data
Daily Summary for January 14, 2017 Units:  Both    English   Metric
« Previous Day
Next Day »
Daily Weekly Monthly Yearly Custom
  High: Low: Average:
Temperature: 74.2 °F /  23.4 °C 54.0 °F /  12.2 °C 60.8 °F /  16 °C
Dew Point: 60.6 °F /  15.9 °C 50.5 °F /  10.3 °C 53.8 °F /  12.1 °C
Humidity: 94% 56% 79%
Wind Speed: 10.4mph /  16.7km/h - 10.4mph /  16.7km/h
Wind Gust: 10.4mph /  16.7km/h - -
Wind- - SE
Pressure: 30.50 in /  1032.7 hPa 30.36 in /  1028 hPa -
Precipitation: 0.00 in /  0 mm    
Historical Graphs
 
 
Tabular Data for January 14, 2017
Time Temperature Dew Point Pressure Wind Wind Speed Wind Gust Humidity Rainfall Rate (Hourly) solar Conditions
00:05 56.1 °F /  13.4 °C 53.5 °F /  11.9 °C 30.48in /  1032.1hPa SSE 10.4mph /  16.7km/h   91% 0.00in /  0mm 0.0 W/m2
00:10 56.1 °F /  13.4 °C 53.5 °F /  11.9 °C 30.48in /  1032.1hPa SSE 10.4mph /  16.7km/h   91% 0.00in /  0mm 0.0 W/m2
00:20 55.9 °F /  13.3 °C 53.3 °F /  11.8 °C 30.47in /  1031.7hPa SSE 10.4mph /  16.7km/h   91% 0.00in /  0mm 0.0 W/m2
00:25 55.8 °F /  13.2 °C 53.2 °F /  11.8 °C 30.47in /  1031.7hPa SSE 10.4mph /  16.7km/h   91% 0.00in /  0mm 0.0 W/m2
00:30 56.1 °F /  13.4 °C 53.8 °F /  12.1 °C 30.47in /  1031.7hPa SSE 10.4mph /  16.7km/h   92% 0.00in /  0mm 0.0 W/m2
00:35 56.5 °F /  13.6 °C 54.2 °F /  12.3 °C 30.47in /  1031.7hPa SSE 10.4mph /  16.7km/h   92% 0.00in /  0mm 0.0 W/m2
00:40 56.4 °F /  13.6 °C 54.1 °F /  12.3 °C 30.47in /  1031.7hPa SSE 10.4mph /  16.7km/h   92% 0.00in /  0mm 0.0 W/m2
00:45 56.1 °F /  13.4 °C 53.5 °F /  11.9 °C 30.47in /  1031.7hPa SSE 10.4mph /  16.7km/h   91% 0.00in /  0mm 0.0 W/m2
00:50 55.7 °F /  13.2 °C 53.1 °F /  11.7 °C 30.47in /  1031.7hPa SSE 10.4mph /  16.7km/h   91% 0.00in /  0mm 0.0 W/m2
00:55 55.4 °F /  13 °C 52.8 °F /  11.6 °C 30.47in /  1031.7hPa SSE 10.4mph /  16.7km/h   91% 0.00in /  0mm 0.0 W/m2
01:01 55.1 °F /  12.8 °C 52.5 °F /  11.4 °C 30.47in /  1031.7hPa SSE 10.4mph /  16.7km/h   91% 0.00in /  0mm 0.0 W/m2
01:06 54.9 °F /  12.7 °C 52.3 °F /  11.3 °C 30.47in /  1031.7hPa SSE 10.4mph /  16.7km/h   91% 0.00in /  0mm 0.0 W/m2
01:11 54.9 °F /  12.7 °C 52.3 °F /  11.3 °C 30.47in /  1031.7hPa SSE 10.4mph /  16.7km/h   91% 0.00in /  0mm 0.0 W/m2
01:16 54.8 °F /  12.7 °C 52.2 °F /  11.2 °C 30.47in /  1031.7hPa SSE 10.4mph /  16.7km/h   91% 0.00in /  0mm 0.0 W/m2
01:21 54.0 °F /  12.2 °C 51.4 °F /  10.8 °C 30.47in /  1031.7hPa SSE 10.4mph /  16.7km/h   91% 0.00in /  0mm 0.0 W/m2
01:26 54.0 °F /  12.2 °C 51.4 °F /  10.8 °C 30.47in /  1031.7hPa SSE 10.4mph /  16.7km/h   91% 0.00in /  0mm 0.0 W/m2
01:31 54.0 °F /  12.2 °C 51.4 °F /  10.8 °C 30.47in /  1031.7hPa North 10.4mph /  16.7km/h   91% 0.00in /  0mm 0.0 W/m2
01:36 54.0 °F /  12.2 °C 51.4 °F /  10.8 °C 30.47in /  1031.7hPa North 10.4mph /  16.7km/h   91% 0.00in /  0mm 0.0 W/m2
01:41 54.0 °F /  12.2 °C 51.4 °F /  10.8 °C 30.47in /  1031.7hPa North 10.4mph /  16.7km/h   91% 0.00in /  0mm 0.0 W/m2
01:46 54.0 °F /  12.2 °C 51.4 °F /  10.8 °C 30.47in /  1031.7hPa North 10.4mph /  16.7km/h   91% 0.00in /  0mm 0.0 W/m2
01:51 54.0 °F /  12.2 °C 51.4 °F /  10.8 °C 30.47in /  1031.7hPa North 10.4mph /  16.7km/h   91% 0.00in /  0mm 0.0 W/m2
01:57 54.0 °F /  12.2 °C 51.4 °F /  10.8 °C 30.47in /  1031.7hPa North 10.4mph /  16.7km/h   91% 0.00in /  0mm 0.0 W/m2
02:02 54.0 °F /  12.2 °C 51.4 °F /  10.8 °C 30.47in /  1031.7hPa North 10.4mph /  16.7km/h   91% 0.00in /  0mm 0.0 W/m2
02:07 54.0 °F /  12.2 °C 51.4 °F /  10.8 °C 30.47in /  1031.7hPa North 10.4mph /  16.7km/h   91% 0.00in /  0mm 0.0 W/m2
02:12 54.0 °F /  12.2 °C 51.4 °F /  10.8 °C 30.47in /  1031.7hPa North 10.4mph /  16.7km/h   91% 0.00in /  0mm 0.0 W/m2
02:17 54.0 °F /  12.2 °C 51.4 °F /  10.8 °C 30.47in /  1031.7hPa North 10.4mph /  16.7km/h   91% 0.00in /  0mm 0.0 W/m2
02:22 54.0 °F /  12.2 °C 51.4 °F /  10.8 °C 30.47in /  1031.7hPa North 10.4mph /  16.7km/h   91% 0.00in /  0mm 0.0 W/m2
02:27 54.0 °F /  12.2 °C 51.4 °F /  10.8 °C 30.47in /  1031.7hPa North 10.4mph /  16.7km/h   91% 0.00in /  0mm 0.0 W/m2
02:32 54.0 °F /  12.2 °C 51.4 °F /  10.8 °C 30.47in /  1031.7hPa North 10.4mph /  16.7km/h   91% 0.00in /  0mm 0.0 W/m2
02:37 54.0 °F /  12.2 °C 51.4 °F /  10.8 °C 30.47in /  1031.7hPa North 10.4mph /  16.7km/h   91% 0.00in /  0mm 0.0 W/m2
02:42 54.0 °F /  12.2 °C 51.4 °F /  10.8 °C 30.47in /  1031.7hPa North 10.4mph /  16.7km/h   91% 0.00in /  0mm 0.0 W/m2
02:47 54.0 °F /  12.2 °C 51.4 °F /  10.8 °C 30.47in /  1031.7hPa North 10.4mph /  16.7km/h   91% 0.00in /  0mm 0.0 W/m2
02:52 54.0 °F /  12.2 °C 51.4 °F /  10.8 °C 30.47in /  1031.7hPa North 10.4mph /  16.7km/h   91% 0.00in /  0mm 0.0 W/m2
02:57 54.0 °F /  12.2 °C 51.4 °F /  10.8 °C 30.47in /  1031.7hPa North 10.4mph /  16.7km/h   91% 0.00in /  0mm 0.0 W/m2
03:02 54.0 °F /  12.2 °C 51.4 °F /  10.8 °C 30.47in /  1031.7hPa North 10.4mph /  16.7km/h   91% 0.00in /  0mm 0.0 W/m2
03:07 54.0 °F /  12.2 °C 51.4 °F /  10.8 °C 30.47in /  1031.7hPa North 10.4mph /  16.7km/h   91% 0.00in /  0mm 0.0 W/m2
03:13 54.0 °F /  12.2 °C 51.4 °F /  10.8 °C 30.47in /  1031.7hPa North 10.4mph /  16.7km/h   91% 0.00in /  0mm 0.0 W/m2
03:18 54.0 °F /  12.2 °C 51.4 °F /  10.8 °C 30.47in /  1031.7hPa North 10.4mph /  16.7km/h   91% 0.00in /  0mm 0.0 W/m2
03:23 54.0 °F /  12.2 °C 51.4 °F /  10.8 °C 30.47in /  1031.7hPa North 10.4mph /  16.7km/h   91% 0.00in /  0mm 0.0 W/m2
03:28 54.0 °F /  12.2 °C 51.4 °F /  10.8 °C 30.47in /  1031.7hPa North 10.4mph /  16.7km/h   91% 0.00in /  0mm 0.0 W/m2
03:33 54.0 °F /  12.2 °C 51.4 °F /  10.8 °C 30.47in /  1031.7hPa North 10.4mph /  16.7km/h   91% 0.00in /  0mm 0.0 W/m2
03:38 54.0 °F /  12.2 °C 51.4 °F /  10.8 °C 30.46in /  1031.4hPa North 10.4mph /  16.7km/h   91% 0.00in /  0mm 0.0 W/m2
03:43 54.0 °F /  12.2 °C 51.4 °F /  10.8 °C 30.46in /  1031.4hPa North 10.4mph /  16.7km/h   91% 0.00in /  0mm 0.0 W/m2
03:48 54.0 °F /  12.2 °C 51.4 °F /  10.8 °C 30.47in /  1031.7hPa North 10.4mph /  16.7km/h   91% 0.00in /  0mm 0.0 W/m2
03:53 54.0 °F /  12.2 °C 51.4 °F /  10.8 °C 30.47in /  1031.7hPa North 10.4mph /  16.7km/h   91% 0.00in /  0mm 0.0 W/m2
03:58 54.0 °F /  12.2 °C 51.4 °F /  10.8 °C 30.46in /  1031.4hPa North 10.4mph /  16.7km/h   91% 0.00in /  0mm 0.0 W/m2
04:03 54.0 °F /  12.2 °C 51.4 °F /  10.8 °C 30.46in /  1031.4hPa North 10.4mph /  16.7km/h   91% 0.00in /  0mm 0.0 W/m2
04:08 54.0 °F /  12.2 °C 51.4 °F /  10.8 °C 30.46in /  1031.4hPa North 10.4mph /  16.7km/h   91% 0.00in /  0mm 0.0 W/m2
04:13 54.0 °F /  12.2 °C 51.4 °F /  10.8 °C 30.46in /  1031.4hPa North 10.4mph /  16.7km/h   91% 0.00in /  0mm 0.0 W/m2
04:18 54.0 °F /  12.2 °C 51.4 °F /  10.8 °C 30.46in /  1031.4hPa North 10.4mph /  16.7km/h   91% 0.00in /  0mm 0.0 W/m2
04:23 54.0 °F /  12.2 °C 51.4 °F /  10.8 °C 30.46in /  1031.4hPa North 10.4mph /  16.7km/h   91% 0.00in /  0mm 0.0 W/m2
04:29 54.0 °F /  12.2 °C 51.4 °F /  10.8 °C 30.46in /  1031.4hPa North 10.4mph /  16.7km/h   91% 0.00in /  0mm 0.0 W/m2
04:34 54.0 °F /  12.2 °C 51.4 °F /  10.8 °C 30.46in /  1031.4hPa North 10.4mph /  16.7km/h   91% 0.00in /  0mm 0.0 W/m2
04:39 54.0 °F /  12.2 °C 51.4 °F /  10.8 °C 30.46in /  1031.4hPa North 10.4mph /  16.7km/h   91% 0.00in /  0mm 0.0 W/m2
04:44 54.0 °F /  12.2 °C 51.4 °F /  10.8 °C 30.46in /  1031.4hPa North 10.4mph /  16.7km/h   91% 0.00in /  0mm 0.0 W/m2
04:49 54.0 °F /  12.2 °C 51.4 °F /  10.8 °C 30.46in /  1031.4hPa North 10.4mph /  16.7km/h   91% 0.00in /  0mm 0.0 W/m2
04:54 54.0 °F /  12.2 °C 51.4 °F /  10.8 °C 30.46in /  1031.4hPa North 10.4mph /  16.7km/h   91% 0.00in /  0mm 0.0 W/m2
04:59 54.0 °F /  12.2 °C 51.4 °F /  10.8 °C 30.46in /  1031.4hPa North 10.4mph /  16.7km/h   91% 0.00in /  0mm 0.0 W/m2
05:04 54.0 °F /  12.2 °C 51.4 °F /  10.8 °C 30.46in /  1031.4hPa North 10.4mph /  16.7km/h   91% 0.00in /  0mm 0.0 W/m2
05:09 54.0 °F /  12.2 °C 51.4 °F /  10.8 °C 30.46in /  1031.4hPa North 10.4mph /  16.7km/h   91% 0.00in /  0mm 0.0 W/m2
05:14 54.0 °F /  12.2 °C 51.4 °F /  10.8 °C 30.46in /  1031.4hPa North 10.4mph /  16.7km/h   91% 0.00in /  0mm 0.0 W/m2
05:19 54.0 °F /  12.2 °C 51.4 °F /  10.8 °C 30.46in /  1031.4hPa North 10.4mph /  16.7km/h   91% 0.00in /  0mm 0.0 W/m2
05:25 54.0 °F /  12.2 °C 51.4 °F /  10.8 °C 30.46in /  1031.4hPa North 10.4mph /  16.7km/h   91% 0.00in /  0mm 0.0 W/m2
05:30 54.0 °F /  12.2 °C 51.4 °F /  10.8 °C 30.46in /  1031.4hPa North 10.4mph /  16.7km/h   91% 0.00in /  0mm 0.0 W/m2
05:35 54.0 °F /  12.2 °C 51.4 °F /  10.8 °C 30.46in /  1031.4hPa North 10.4mph /  16.7km/h   91% 0.00in /  0mm 0.0 W/m2
05:40 54.0 °F /  12.2 °C 51.4 °F /  10.8 °C 30.46in /  1031.4hPa North 10.4mph /  16.7km/h   91% 0.00in /  0mm 0.0 W/m2
05:45 54.0 °F /  12.2 °C 51.4 °F /  10.8 °C 30.46in /  1031.4hPa North 10.4mph /  16.7km/h   91% 0.00in /  0mm 0.0 W/m2
05:50 54.0 °F /  12.2 °C 51.4 °F /  10.8 °C 30.46in /  1031.4hPa North 10.4mph /  16.7km/h   91% 0.00in /  0mm 0.0 W/m2
05:55 54.0 °F /  12.2 °C 51.4 °F /  10.8 °C 30.46in /  1031.4hPa North 10.4mph /  16.7km/h   91% 0.00in /  0mm 0.0 W/m2
06:00 54.0 °F /  12.2 °C 51.4 °F /  10.8 °C 30.46in /  1031.4hPa North 10.4mph /  16.7km/h   91% 0.00in /  0mm 0.0 W/m2
06:05 54.0 °F /  12.2 °C 51.4 °F /  10.8 °C 30.46in /  1031.4hPa North 10.4mph /  16.7km/h   91% 0.00in /  0mm 0.0 W/m2
06:10 54.0 °F /  12.2 °C 51.4 °F /  10.8 °C 30.46in /  1031.4hPa North 10.4mph /  16.7km/h   91% 0.00in /  0mm 0.0 W/m2
06:15 54.0 °F /  12.2 °C 51.4 °F /  10.8 °C 30.46in /  1031.4hPa North 10.4mph /  16.7km/h   91% 0.00in /  0mm 0.0 W/m2
06:20 54.0 °F /  12.2 °C 51.4 °F /  10.8 °C 30.46in /  1031.4hPa North 10.4mph /  16.7km/h   91% 0.00in /  0mm 0.0 W/m2
06:25 54.0 °F /  12.2 °C 51.4 °F /  10.8 °C 30.46in /  1031.4hPa North 10.4mph /  16.7km/h   91% 0.00in /  0mm 0.0 W/m2
06:31 54.0 °F /  12.2 °C 51.4 °F /  10.8 °C 30.47in /  1031.7hPa North 10.4mph /  16.7km/h   91% 0.00in /  0mm 0.0 W/m2
06:36 54.0 °F /  12.2 °C 51.4 °F /  10.8 °C 30.47in /  1031.7hPa North 10.4mph /  16.7km/h   91% 0.00in /  0mm 0.0 W/m2
06:41 54.0 °F /  12.2 °C 51.4 °F /  10.8 °C 30.47in /  1031.7hPa North 10.4mph /  16.7km/h   91% 0.00in /  0mm 0.0 W/m2
06:46 54.0 °F /  12.2 °C 51.4 °F /  10.8 °C 30.46in /  1031.4hPa North 10.4mph /  16.7km/h   91% 0.00in /  0mm 0.0 W/m2
06:51 54.0 °F /  12.2 °C 51.4 °F /  10.8 °C 30.47in /  1031.7hPa North 10.4mph /  16.7km/h   91% 0.00in /  0mm 0.0 W/m2
06:56 54.0 °F /  12.2 °C 51.4 °F /  10.8 °C 30.47in /  1031.7hPa North 10.4mph /  16.7km/h   91% 0.00in /  0mm 0.0 W/m2
07:01 54.0 °F /  12.2 °C 51.4 °F /  10.8 °C 30.47in /  1031.7hPa North 10.4mph /  16.7km/h   91% 0.00in /  0mm 0.0 W/m2
07:06 54.0 °F /  12.2 °C 51.4 °F /  10.8 °C 30.47in /  1031.7hPa North 10.4mph /  16.7km/h   91% 0.00in /  0mm 0.0 W/m2
07:11 54.0 °F /  12.2 °C 51.4 °F /  10.8 °C 30.47in /  1031.7hPa North 10.4mph /  16.7km/h   91% 0.00in /  0mm 0.0 W/m2
07:16 54.0 °F /  12.2 °C 51.4 °F /  10.8 °C 30.47in /  1031.7hPa North 10.4mph /  16.7km/h   91% 0.00in /  0mm 0.0 W/m2 CLR
07:21 54.0 °F /  12.2 °C 51.4 °F /  10.8 °C 30.47in /  1031.7hPa North 10.4mph /  16.7km/h   91% 0.00in /  0mm 0.0 W/m2 CLR
07:26 54.0 °F /  12.2 °C 51.4 °F /  10.8 °C 30.48in /  1032.1hPa North 10.4mph /  16.7km/h   91% 0.00in /  0mm 0.0 W/m2 CLR
07:32 54.0 °F /  12.2 °C 51.4 °F /  10.8 °C 30.48in /  1032.1hPa North 10.4mph /  16.7km/h   91% 0.00in /  0mm 0.0 W/m2 CLR
07:37 54.0 °F /  12.2 °C 51.4 °F /  10.8 °C 30.48in /  1032.1hPa North 10.4mph /  16.7km/h   91% 0.00in /  0mm 0.0 W/m2 CLR
07:42 54.0 °F /  12.2 °C 51.4 °F /  10.8 °C 30.48in /  1032.1hPa North 10.4mph /  16.7km/h   91% 0.00in /  0mm 0.0 W/m2 CLR
07:47 54.0 °F /  12.2 °C 51.4 °F /  10.8 °C 30.48in /  1032.1hPa North 10.4mph /  16.7km/h   91% 0.00in /  0mm 0.0 W/m2 CLR
07:52 54.0 °F /  12.2 °C 51.4 °F /  10.8 °C 30.48in /  1032.1hPa North 10.4mph /  16.7km/h   91% 0.00in /  0mm 0.0 W/m2 CLR
07:57 54.0 °F /  12.2 °C 51.4 °F /  10.8 °C 30.48in /  1032.1hPa North 10.4mph /  16.7km/h   91% 0.00in /  0mm 0.0 W/m2 CLR
08:02 54.0 °F /  12.2 °C 51.4 °F /  10.8 °C 30.48in /  1032.1hPa North 10.4mph /  16.7km/h   91% 0.00in /  0mm 0.0 W/m2 CLR
08:07 54.0 °F /  12.2 °C 51.4 °F /  10.8 °C 30.48in /  1032.1hPa North 10.4mph /  16.7km/h   91% 0.00in /  0mm 0.0 W/m2 CLR
08:12 54.0 °F /  12.2 °C 51.4 °F /  10.8 °C 30.48in /  1032.1hPa North 10.4mph /  16.7km/h   91% 0.00in /  0mm 0.0 W/m2 CLR
08:17 54.0 °F /  12.2 °C 51.4 °F /  10.8 °C 30.48in /  1032.1hPa North 10.4mph /  16.7km/h   91% 0.00in /  0mm 0.0 W/m2 CLR
08:23 54.0 °F /  12.2 °C 51.4 °F /  10.8 °C 30.48in /  1032.1hPa North 10.4mph /  16.7km/h   91% 0.00in /  0mm 0.0 W/m2 CLR
08:28 54.0 °F /  12.2 °C 51.4 °F /  10.8 °C 30.48in /  1032.1hPa North 10.4mph /  16.7km/h   91% 0.00in /  0mm 0.0 W/m2 CLR
08:33 54.0 °F /  12.2 °C 51.4 °F /  10.8 °C 30.48in /  1032.1hPa North 10.4mph /  16.7km/h   91% 0.00in /  0mm 0.0 W/m2 CLR
08:38 54.0 °F /  12.2 °C 51.4 °F /  10.8 °C 30.49in /  1032.4hPa North 10.4mph /  16.7km/h   91% 0.00in /  0mm 0.0 W/m2 CLR
08:43 54.0 °F /  12.2 °C 51.4 °F /  10.8 °C 30.49in /  1032.4hPa North 10.4mph /  16.7km/h   91% 0.00in /  0mm 0.0 W/m2 CLR
08:48 54.0 °F /  12.2 °C 51.4 °F /  10.8 °C 30.49in /  1032.4hPa North 10.4mph /  16.7km/h   91% 0.00in /  0mm 0.0 W/m2 CLR
08:53 54.0 °F /  12.2 °C 51.4 °F /  10.8 °C 30.49in /  1032.4hPa North 10.4mph /  16.7km/h   91% 0.00in /  0mm 0.0 W/m2 CLR
08:58 54.0 °F /  12.2 °C 51.4 °F /  10.8 °C 30.49in /  1032.4hPa North 10.4mph /  16.7km/h   91% 0.00in /  0mm 0.0 W/m2 CLR
09:03 54.0 °F /  12.2 °C 51.4 °F /  10.8 °C 30.49in /  1032.4hPa North 10.4mph /  16.7km/h   91% 0.00in /  0mm 0.0 W/m2 OVC
09:08 54.0 °F /  12.2 °C 51.4 °F /  10.8 °C 30.49in /  1032.4hPa North 10.4mph /  16.7km/h   91% 0.00in /  0mm 0.0 W/m2 OVC
09:13 54.0 °F /  12.2 °C 51.4 °F /  10.8 °C 30.49in /  1032.4hPa North 10.4mph /  16.7km/h   91% 0.00in /  0mm 0.0 W/m2 OVC
09:18 55.6 °F /  13.1 °C 53.9 °F /  12.2 °C 30.49in /  1032.4hPa SSE 10.4mph /  16.7km/h   94% 0.00in /  0mm 0.0 W/m2 OVC
09:23 55.9 °F /  13.3 °C 54.2 °F /  12.3 °C 30.49in /  1032.4hPa SSE 10.4mph /  16.7km/h   94% 0.00in /  0mm 0.0 W/m2 OVC
09:28 56.2 °F /  13.4 °C 54.5 °F /  12.5 °C 30.49in /  1032.4hPa SSE 10.4mph /  16.7km/h   94% 0.00in /  0mm 0.0 W/m2 OVC
09:33 56.3 °F /  13.5 °C 54.6 °F /  12.6 °C 30.49in /  1032.4hPa SSE 10.4mph /  16.7km/h   94% 0.00in /  0mm 0.0 W/m2 OVC
09:38 56.6 °F /  13.7 °C 54.9 °F /  12.7 °C 30.49in /  1032.4hPa SSE 10.4mph /  16.7km/h   94% 0.00in /  0mm 0.0 W/m2 OVC
09:43 57.0 °F /  13.9 °C 55.3 °F /  12.9 °C 30.49in /  1032.4hPa SSE 10.4mph /  16.7km/h   94% 0.00in /  0mm 0.0 W/m2 OVC
09:49 57.2 °F /  14 °C 55.5 °F /  13.1 °C 30.49in /  1032.4hPa SSE 10.4mph /  16.7km/h   94% 0.00in /  0mm 0.0 W/m2 OVC
09:54 57.7 °F /  14.3 °C 56.0 °F /  13.3 °C 30.50in /  1032.7hPa SSE 10.4mph /  16.7km/h   94% 0.00in /  0mm 0.0 W/m2 OVC
09:59 58.1 °F /  14.5 °C 56.4 °F /  13.6 °C 30.50in /  1032.7hPa SSE 10.4mph /  16.7km/h   94% 0.00in /  0mm 0.0 W/m2 OVC
10:04 58.4 °F /  14.7 °C 56.7 °F /  13.7 °C 30.49in /  1032.4hPa SSE 10.4mph /  16.7km/h   94% 0.00in /  0mm 0.0 W/m2 OVC
10:09 58.9 °F /  14.9 °C 57.2 °F /  14 °C 30.49in /  1032.4hPa SSE 10.4mph /  16.7km/h   94% 0.00in /  0mm 0.0 W/m2 OVC
10:14 59.4 °F /  15.2 °C 57.7 °F /  14.3 °C 30.50in /  1032.7hPa SSE 10.4mph /  16.7km/h   94% 0.00in /  0mm 0.0 W/m2 OVC
10:19 60.0 °F /  15.6 °C 58.3 °F /  14.6 °C 30.50in /  1032.7hPa SSE 10.4mph /  16.7km/h   94% 0.00in /  0mm 0.0 W/m2 OVC
10:24 60.7 °F /  15.9 °C 59.0 °F /  15 °C 30.49in /  1032.4hPa SSE 10.4mph /  16.7km/h   94% 0.00in /  0mm 0.0 W/m2 OVC
10:29 61.3 °F /  16.3 °C 59.3 °F /  15.2 °C 30.49in /  1032.4hPa West 10.4mph /  16.7km/h   93% 0.00in /  0mm 0.0 W/m2 OVC
10:34 61.9 °F /  16.6 °C 59.5 °F /  15.3 °C 30.49in /  1032.4hPa West 10.4mph /  16.7km/h   92% 0.00in /  0mm 0.0 W/m2 OVC
10:39 63.0 °F /  17.2 °C 60.0 °F /  15.6 °C 30.49in /  1032.4hPa West 10.4mph /  16.7km/h   90% 0.00in /  0mm 0.0 W/m2 OVC
10:44 63.8 °F /  17.7 °C 59.9 °F /  15.5 °C 30.49in /  1032.4hPa West 10.4mph /  16.7km/h   87% 0.00in /  0mm 0.0 W/m2 OVC
10:49 64.2 °F /  17.9 °C 59.6 °F /  15.3 °C 30.49in /  1032.4hPa West 10.4mph /  16.7km/h   85% 0.00in /  0mm 0.0 W/m2 OVC
10:54 64.5 °F /  18.1 °C 59.6 °F /  15.3 °C 30.49in /  1032.4hPa West 10.4mph /  16.7km/h   84% 0.00in /  0mm 0.0 W/m2 OVC
10:59 65.2 °F /  18.4 °C 59.9 °F /  15.5 °C 30.49in /  1032.4hPa West 10.4mph /  16.7km/h   83% 0.00in /  0mm 0.0 W/m2 OVC
11:04 66.9 °F /  19.4 °C 59.8 °F /  15.4 °C 30.49in /  1032.4hPa WNW 10.4mph /  16.7km/h   78% 0.00in /  0mm 0.0 W/m2 OVC
11:09 68.5 °F /  20.3 °C 59.9 °F /  15.5 °C 30.49in /  1032.4hPa East 10.4mph /  16.7km/h 10.4mph /  16.7km/h 74% 0.00in /  0mm 0.0 W/m2 OVC
11:14 69.0 °F /  20.6 °C 59.2 °F /  15.1 °C 30.48in /  1032.1hPa SW 10.4mph /  16.7km/h 10.4mph /  16.7km/h 71% 0.00in /  0mm 0.0 W/m2 OVC
11:19 69.7 °F /  20.9 °C 60.3 °F /  15.7 °C 30.48in /  1032.1hPa NW 10.4mph /  16.7km/h 10.4mph /  16.7km/h 72% 0.00in /  0mm 0.0 W/m2 OVC
11:25 70.9 °F /  21.6 °C 60.6 °F /  15.9 °C 30.48in /  1032.1hPa ENE 10.4mph /  16.7km/h 10.4mph /  16.7km/h 70% 0.00in /  0mm 0.0 W/m2 OVC
11:30 71.3 °F /  21.8 °C 59.8 °F /  15.4 °C 30.48in /  1032.1hPa North 10.4mph /  16.7km/h 10.4mph /  16.7km/h 67% 0.00in /  0mm 0.0 W/m2 OVC
11:35 71.6 °F /  22 °C 59.6 °F /  15.3 °C 30.48in /  1032.1hPa SE 10.4mph /  16.7km/h 10.4mph /  16.7km/h 66% 0.00in /  0mm 0.0 W/m2 OVC
11:40 72.0 °F /  22.2 °C 60.0 °F /  15.6 °C 30.47in /  1031.7hPa ENE 10.4mph /  16.7km/h 10.4mph /  16.7km/h 66% 0.00in /  0mm 0.0 W/m2 OVC
11:45 72.3 °F /  22.4 °C 59.4 °F /  15.2 °C 30.47in /  1031.7hPa NE 10.4mph /  16.7km/h 10.4mph /  16.7km/h 64% 0.00in /  0mm 0.0 W/m2 OVC
11:50 72.3 °F /  22.4 °C 59.4 °F /  15.2 °C 30.47in /  1031.7hPa ENE 10.4mph /  16.7km/h 10.4mph /  16.7km/h 64% 0.00in /  0mm 0.0 W/m2 OVC
11:55 72.5 °F /  22.5 °C 59.6 °F /  15.3 °C 30.47in /  1031.7hPa ENE 10.4mph /  16.7km/h   64% 0.00in /  0mm 0.0 W/m2 OVC
12:00 72.2 °F /  22.3 °C 59.3 °F /  15.2 °C 30.46in /  1031.4hPa East 10.4mph /  16.7km/h   64% 0.00in /  0mm 0.0 W/m2 OVC
12:05 71.5 °F /  21.9 °C 59.1 °F /  15.1 °C 30.46in /  1031.4hPa South 10.4mph /  16.7km/h   65% 0.00in /  0mm 0.0 W/m2 OVC
12:10 71.0 °F /  21.7 °C 58.6 °F /  14.8 °C 30.46in /  1031.4hPa ENE 10.4mph /  16.7km/h   65% 0.00in /  0mm 0.0 W/m2 OVC
12:15 70.7 °F /  21.5 °C 59.2 °F /  15.1 °C 30.45in /  1031hPa SSE 10.4mph /  16.7km/h   67% 0.00in /  0mm 0.0 W/m2 OVC
12:20 70.5 °F /  21.4 °C 59.0 °F /  15 °C 30.45in /  1031hPa SSE 10.4mph /  16.7km/h   67% 0.00in /  0mm 0.0 W/m2 OVC
12:25 70.5 °F /  21.4 °C 59.0 °F /  15 °C 30.45in /  1031hPa SSE 10.4mph /  16.7km/h   67% 0.00in /  0mm 0.0 W/m2 OVC
12:30 70.6 °F /  21.4 °C 59.1 °F /  15.1 °C 30.44in /  1030.7hPa SSE 10.4mph /  16.7km/h   67% 0.00in /  0mm 0.0 W/m2 OVC
12:35 70.9 °F /  21.6 °C 58.5 °F /  14.7 °C 30.44in /  1030.7hPa SSE 10.4mph /  16.7km/h 10.4mph /  16.7km/h 65% 0.00in /  0mm 0.0 W/m2 OVC
12:40 71.2 °F /  21.8 °C 58.4 °F /  14.7 °C 30.44in /  1030.7hPa SSW 10.4mph /  16.7km/h 10.4mph /  16.7km/h 64% 0.00in /  0mm 0.0 W/m2 OVC
12:45 71.7 °F /  22.1 °C 58.0 °F /  14.4 °C 30.43in /  1030.4hPa SW 10.4mph /  16.7km/h 10.4mph /  16.7km/h 62% 0.00in /  0mm 0.0 W/m2 OVC
12:50 72.3 °F /  22.4 °C 58.5 °F /  14.7 °C 30.43in /  1030.4hPa NW 10.4mph /  16.7km/h   62% 0.00in /  0mm 0.0 W/m2 OVC
12:56 73.5 °F /  23.1 °C 58.8 °F /  14.9 °C 30.42in /  1030hPa NW 10.4mph /  16.7km/h   60% 0.00in /  0mm 0.0 W/m2 OVC
13:01 73.7 °F /  23.2 °C 58.9 °F /  14.9 °C 30.42in /  1030hPa NW 10.4mph /  16.7km/h   60% 0.00in /  0mm 0.0 W/m2 OVC
13:06 73.7 °F /  23.2 °C 58.5 °F /  14.7 °C 30.42in /  1030hPa West 10.4mph /  16.7km/h   59% 0.00in /  0mm 0.0 W/m2 OVC
13:11 74.2 °F /  23.4 °C 58.0 °F /  14.4 °C 30.41in /  1029.7hPa North 10.4mph /  16.7km/h   57% 0.00in /  0mm 0.0 W/m2 OVC
13:16 73.9 °F /  23.3 °C 57.7 °F /  14.3 °C 30.41in /  1029.7hPa North 10.4mph /  16.7km/h   57% 0.00in /  0mm 0.0 W/m2 OVC
13:21 73.1 °F /  22.8 °C 57.4 °F /  14.1 °C 30.41in /  1029.7hPa North 10.4mph /  16.7km/h   58% 0.00in /  0mm 0.0 W/m2 OVC
13:26 72.7 °F /  22.6 °C 57.5 °F /  14.2 °C 30.41in /  1029.7hPa East 10.4mph /  16.7km/h 10.4mph /  16.7km/h 59% 0.00in /  0mm 0.0 W/m2 OVC
13:31 72.1 °F /  22.3 °C 57.4 °F /  14.1 °C 30.41in /  1029.7hPa ENE 10.4mph /  16.7km/h   60% 0.00in /  0mm 0.0 W/m2 OVC
13:36 71.6 °F /  22 °C 57.0 °F /  13.9 °C 30.41in /  1029.7hPa ESE 10.4mph /  16.7km/h   60% 0.00in /  0mm 0.0 W/m2 OVC
13:41 71.4 °F /  21.9 °C 57.2 °F /  14 °C 30.40in /  1029.3hPa SSE 10.4mph /  16.7km/h 10.4mph /  16.7km/h 61% 0.00in /  0mm 0.0 W/m2 OVC
13:46 71.1 °F /  21.7 °C 57.4 °F /  14.1 °C 30.40in /  1029.3hPa West 10.4mph /  16.7km/h   62% 0.00in /  0mm 0.0 W/m2 OVC
13:51 71.0 °F /  21.7 °C 56.9 °F /  13.8 °C 30.40in /  1029.3hPa West 10.4mph /  16.7km/h   61% 0.00in /  0mm 0.0 W/m2 OVC
13:56 70.9 °F /  21.6 °C 56.8 °F /  13.8 °C 30.40in /  1029.3hPa WSW 10.4mph /  16.7km/h   61% 0.00in /  0mm 0.0 W/m2 OVC
14:01 71.0 °F /  21.7 °C 56.9 °F /  13.8 °C 30.39in /  1029hPa NW 10.4mph /  16.7km/h   61% 0.00in /  0mm 0.0 W/m2 OVC
14:06 71.2 °F /  21.8 °C 57.1 °F /  13.9 °C 30.39in /  1029hPa NW 10.4mph /  16.7km/h   61% 0.00in /  0mm 0.0 W/m2 OVC
14:12 71.3 °F /  21.8 °C 56.7 °F /  13.7 °C 30.39in /  1029hPa WNW 10.4mph /  16.7km/h 10.4mph /  16.7km/h 60% 0.00in /  0mm 0.0 W/m2 OVC
14:17 71.4 °F /  21.9 °C 56.8 °F /  13.8 °C 30.39in /  1029hPa East 10.4mph /  16.7km/h 10.4mph /  16.7km/h 60% 0.00in /  0mm 0.0 W/m2 OVC
14:22 71.2 °F /  21.8 °C 57.1 °F /  13.9 °C 30.39in /  1029hPa SW 10.4mph /  16.7km/h 10.4mph /  16.7km/h 61% 0.00in /  0mm 0.0 W/m2 OVC
14:27 71.0 °F /  21.7 °C 56.9 °F /  13.8 °C 30.39in /  1029hPa SW 10.4mph /  16.7km/h   61% 0.00in /  0mm 0.0 W/m2 OVC
14:32 71.0 °F /  21.7 °C 57.3 °F /  14.1 °C 30.39in /  1029hPa WSW 10.4mph /  16.7km/h   62% 0.00in /  0mm 0.0 W/m2 OVC
14:37 70.9 °F /  21.6 °C 57.2 °F /  14 °C 30.39in /  1029hPa WSW 10.4mph /  16.7km/h   62% 0.00in /  0mm 0.0 W/m2 OVC
14:42 70.6 °F /  21.4 °C 56.0 °F /  13.3 °C 30.39in /  1029hPa SW 10.4mph /  16.7km/h   60% 0.00in /  0mm 0.0 W/m2 OVC
14:47 70.5 °F /  21.4 °C 56.9 °F /  13.8 °C 30.39in /  1029hPa SW 10.4mph /  16.7km/h   62% 0.00in /  0mm 0.0 W/m2 OVC
14:52 70.2 °F /  21.2 °C 56.1 °F /  13.4 °C 30.38in /  1028.7hPa SW 10.4mph /  16.7km/h   61% 0.00in /  0mm 0.0 W/m2 OVC
14:57 70.1 °F /  21.2 °C 56.5 °F /  13.6 °C 30.38in /  1028.7hPa SW 10.4mph /  16.7km/h   62% 0.00in /  0mm 0.0 W/m2 OVC
15:02 70.3 °F /  21.3 °C 57.1 °F /  13.9 °C 30.38in /  1028.7hPa SW 10.4mph /  16.7km/h   63% 0.00in /  0mm 0.0 W/m2 OVC
15:07 70.6 °F /  21.4 °C 56.9 °F /  13.8 °C 30.38in /  1028.7hPa SW 10.4mph /  16.7km/h   62% 0.00in /  0mm 0.0 W/m2 OVC
15:12 71.0 °F /  21.7 °C 55.5 °F /  13.1 °C 30.38in /  1028.7hPa SW 10.4mph /  16.7km/h   58% 0.00in /  0mm 0.0 W/m2 OVC
15:17 71.2 °F /  21.8 °C 55.2 °F /  12.9 °C 30.38in /  1028.7hPa SW 10.4mph /  16.7km/h   57% 0.00in /  0mm 0.0 W/m2 OVC
15:22 71.3 °F /  21.8 °C 55.3 °F /  12.9 °C 30.38in /  1028.7hPa NNE 10.4mph /  16.7km/h 10.4mph /  16.7km/h 57% 0.00in /  0mm 0.0 W/m2 OVC
15:28 71.3 °F /  21.8 °C 55.3 °F /  12.9 °C 30.38in /  1028.7hPa NNE 10.4mph /  16.7km/h   57% 0.00in /  0mm 0.0 W/m2 OVC
15:33 71.3 °F /  21.8 °C 55.8 °F /  13.2 °C 30.38in /  1028.7hPa NNE 10.4mph /  16.7km/h   58% 0.00in /  0mm 0.0 W/m2 OVC
15:38 71.4 °F /  21.9 °C 54.9 °F /  12.7 °C 30.38in /  1028.7hPa NNE 10.4mph /  16.7km/h 10.4mph /  16.7km/h 56% 0.00in /  0mm 0.0 W/m2 OVC
15:40 71.3 °F /  21.8 °C 54.8 °F /  12.7 °C 30.38in /  1028.7hPa NNE 10.4mph /  16.7km/h   56% 0.00in /  0mm 0.0 W/m2 OVC
15:45 71.3 °F /  21.8 °C 55.3 °F /  12.9 °C 30.38in /  1028.7hPa NNE 10.4mph /  16.7km/h   57% 0.00in /  0mm 0.0 W/m2 OVC
15:50 71.2 °F /  21.8 °C 55.7 °F /  13.2 °C 30.38in /  1028.7hPa NNE 10.4mph /  16.7km/h   58% 0.00in /  0mm 0.0 W/m2 OVC
15:55 71.2 °F /  21.8 °C 55.7 °F /  13.2 °C 30.38in /  1028.7hPa NNE 10.4mph /  16.7km/h   58% 0.00in /  0mm 0.0 W/m2 OVC
16:00 71.2 °F /  21.8 °C 56.6 °F /  13.7 °C 30.37in /  1028.3hPa NNE 10.4mph /  16.7km/h   60% 0.00in /  0mm 0.0 W/m2 CLR
16:05 71.1 °F /  21.7 °C 56.0 °F /  13.3 °C 30.37in /  1028.3hPa NNE 10.4mph /  16.7km/h   59% 0.00in /  0mm 0.0 W/m2 CLR
16:10 71.0 °F /  21.7 °C 55.9 °F /  13.3 °C 30.38in /  1028.7hPa NNE 10.4mph /  16.7km/h   59% 0.00in /  0mm 0.0 W/m2 CLR
16:16 70.8 °F /  21.6 °C 56.7 °F /  13.7 °C 30.38in /  1028.7hPa NNE 10.4mph /  16.7km/h   61% 0.00in /  0mm 0.0 W/m2 CLR
16:21 70.7 °F /  21.5 °C 57.0 °F /  13.9 °C 30.38in /  1028.7hPa NNE 10.4mph /  16.7km/h   62% 0.00in /  0mm 0.0 W/m2 CLR
16:26 70.7 °F /  21.5 °C 56.6 °F /  13.7 °C 30.38in /  1028.7hPa NNE 10.4mph /  16.7km/h   61% 0.00in /  0mm 0.0 W/m2 CLR
16:31 70.5 °F /  21.4 °C 55.5 °F /  13.1 °C 30.38in /  1028.7hPa North 10.4mph /  16.7km/h   59% 0.00in /  0mm 0.0 W/m2 CLR
16:36 70.4 °F /  21.3 °C 55.8 °F /  13.2 °C 30.38in /  1028.7hPa NNW 10.4mph /  16.7km/h 10.4mph /  16.7km/h 60% 0.00in /  0mm 0.0 W/m2 CLR
16:41 70.3 °F /  21.3 °C 55.3 °F /  12.9 °C 30.38in /  1028.7hPa NNW 10.4mph /  16.7km/h   59% 0.00in /  0mm 0.0 W/m2 CLR
16:46 70.3 °F /  21.3 °C 55.3 °F /  12.9 °C 30.38in /  1028.7hPa NNW 10.4mph /  16.7km/h 10.4mph /  16.7km/h 59% 0.00in /  0mm 0.0 W/m2 CLR
16:51 70.3 °F /  21.3 °C 55.8 °F /  13.2 °C 30.38in /  1028.7hPa SW 10.4mph /  16.7km/h   60% 0.00in /  0mm 0.0 W/m2 CLR
16:56 70.2 °F /  21.2 °C 56.1 °F /  13.4 °C 30.38in /  1028.7hPa SW 10.4mph /  16.7km/h   61% 0.00in /  0mm 0.0 W/m2 CLR
17:01 70.1 °F /  21.2 °C 55.1 °F /  12.8 °C 30.38in /  1028.7hPa SW 10.4mph /  16.7km/h   59% 0.00in /  0mm 0.0 W/m2 CLR
17:06 69.9 °F /  21.1 °C 55.4 °F /  13 °C 30.38in /  1028.7hPa West 10.4mph /  16.7km/h 10.4mph /  16.7km/h 60% 0.00in /  0mm 0.0 W/m2 CLR
17:11 69.6 °F /  20.9 °C 54.6 °F /  12.6 °C 30.38in /  1028.7hPa West 10.4mph /  16.7km/h   59% 0.00in /  0mm 0.0 W/m2 CLR
17:16 69.3 °F /  20.7 °C 54.8 °F /  12.7 °C 30.38in /  1028.7hPa West 10.4mph /  16.7km/h   60% 0.00in /  0mm 0.0 W/m2 CLR
17:22 69.0 °F /  20.6 °C 55.0 °F /  12.8 °C 30.38in /  1028.7hPa West 10.4mph /  16.7km/h   61% 0.00in /  0mm 0.0 W/m2 CLR
17:27 68.4 °F /  20.2 °C 54.9 °F /  12.7 °C 30.38in /  1028.7hPa West 10.4mph /  16.7km/h   62% 0.00in /  0mm 0.0 W/m2 CLR
17:32 68.0 °F /  20 °C 54.5 °F /  12.5 °C 30.38in /  1028.7hPa West 10.4mph /  16.7km/h   62% 0.00in /  0mm 0.0 W/m2 CLR
17:37 67.5 °F /  19.7 °C 54.5 °F /  12.5 °C 30.38in /  1028.7hPa West 10.4mph /  16.7km/h   63% 0.00in /  0mm 0.0 W/m2 CLR
17:42 67.0 °F /  19.4 °C 54.4 °F /  12.4 °C 30.38in /  1028.7hPa West 10.4mph /  16.7km/h   64% 0.00in /  0mm 0.0 W/m2 CLR
17:47 66.5 °F /  19.2 °C 53.9 °F /  12.2 °C 30.38in /  1028.7hPa West 10.4mph /  16.7km/h   64% 0.00in /  0mm 0.0 W/m2 CLR
17:52 65.9 °F /  18.8 °C 53.8 °F /  12.1 °C 30.39in /  1029hPa West 10.4mph /  16.7km/h   65% 0.00in /  0mm 0.0 W/m2 CLR
17:57 65.4 °F /  18.6 °C 53.7 °F /  12.1 °C 30.39in /  1029hPa West 10.4mph /  16.7km/h   66% 0.00in /  0mm 0.0 W/m2 CLR
18:02 65.0 °F /  18.3 °C 53.8 °F /  12.1 °C 30.39in /  1029hPa West 10.4mph /  16.7km/h   67% 0.00in /  0mm 0.0 W/m2
18:07 64.6 °F /  18.1 °C 53.4 °F /  11.9 °C 30.38in /  1028.7hPa West 10.4mph /  16.7km/h   67% 0.00in /  0mm 0.0 W/m2
18:12 64.2 °F /  17.9 °C 53.4 °F /  11.9 °C 30.39in /  1029hPa West 10.4mph /  16.7km/h   68% 0.00in /  0mm 0.0 W/m2
18:17 64.0 °F /  17.8 °C 53.2 °F /  11.8 °C 30.38in /  1028.7hPa West 10.4mph /  16.7km/h   68% 0.00in /  0mm 0.0 W/m2
18:22 63.7 °F /  17.6 °C 53.3 °F /  11.8 °C 30.39in /  1029hPa West 10.4mph /  16.7km/h   69% 0.00in /  0mm 0.0 W/m2
18:27 63.3 °F /  17.4 °C 53.0 °F /  11.7 °C 30.39in /  1029hPa West 10.4mph /  16.7km/h   69% 0.00in /  0mm 0.0 W/m2
18:32 63.0 °F /  17.2 °C 53.1 °F /  11.7 °C 30.39in /  1029hPa West 10.4mph /  16.7km/h   70% 0.00in /  0mm 0.0 W/m2
18:37 62.7 °F /  17.1 °C 52.8 °F /  11.6 °C 30.39in /  1029hPa West 10.4mph /  16.7km/h   70% 0.00in /  0mm 0.0 W/m2
18:43 62.4 °F /  16.9 °C 52.9 °F /  11.6 °C 30.39in /  1029hPa West 10.4mph /  16.7km/h   71% 0.00in /  0mm 0.0 W/m2
18:48 62.2 °F /  16.8 °C 53.1 °F /  11.7 °C 30.39in /  1029hPa West 10.4mph /  16.7km/h   72% 0.00in /  0mm 0.0 W/m2
18:53 62.0 °F /  16.7 °C 52.9 °F /  11.6 °C 30.39in /  1029hPa West 10.4mph /  16.7km/h   72% 0.00in /  0mm 0.0 W/m2
18:58 61.8 °F /  16.6 °C 53.1 °F /  11.7 °C 30.39in /  1029hPa West 10.4mph /  16.7km/h   73% 0.00in /  0mm 0.0 W/m2
19:03 61.6 °F /  16.4 °C 52.9 °F /  11.6 °C 30.39in /  1029hPa West 10.4mph /  16.7km/h   73% 0.00in /  0mm 0.0 W/m2
19:08 61.3 °F /  16.3 °C 52.9 °F /  11.6 °C 30.39in /  1029hPa West 10.4mph /  16.7km/h   74% 0.00in /  0mm 0.0 W/m2
19:13 61.5 °F /  16.4 °C 53.1 °F /  11.7 °C 30.39in /  1029hPa West 10.4mph /  16.7km/h   74% 0.00in /  0mm 0.0 W/m2
19:18 61.4 °F /  16.3 °C 53.0 °F /  11.7 °C 30.39in /  1029hPa West 10.4mph /  16.7km/h   74% 0.00in /  0mm 0.0 W/m2
19:23 61.2 °F /  16.2 °C 52.8 °F /  11.6 °C 30.39in /  1029hPa West 10.4mph /  16.7km/h   74% 0.00in /  0mm 0.0 W/m2
19:28 61.0 °F /  16.1 °C 53.0 °F /  11.7 °C 30.39in /  1029hPa West 10.4mph /  16.7km/h   75% 0.00in /  0mm 0.0 W/m2
19:33 60.8 °F /  16 °C 52.8 °F /  11.6 °C 30.39in /  1029hPa West 10.4mph /  16.7km/h   75% 0.00in /  0mm 0.0 W/m2
19:38 60.5 °F /  15.8 °C 52.9 °F /  11.6 °C 30.39in /  1029hPa West 10.4mph /  16.7km/h   76% 0.00in /  0mm 0.0 W/m2
19:44 60.3 °F /  15.7 °C 52.7 °F /  11.5 °C 30.39in /  1029hPa West 10.4mph /  16.7km/h   76% 0.00in /  0mm 0.0 W/m2
19:54 60.0 °F /  15.6 °C 52.8 °F /  11.6 °C 30.39in /  1029hPa West 10.4mph /  16.7km/h   77% 0.00in /  0mm 0.0 W/m2
19:59 59.8 °F /  15.4 °C 52.6 °F /  11.4 °C 30.39in /  1029hPa West 10.4mph /  16.7km/h   77% 0.00in /  0mm 0.0 W/m2
20:04 59.7 °F /  15.4 °C 52.5 °F /  11.4 °C 30.39in /  1029hPa West 10.4mph /  16.7km/h   77% 0.00in /  0mm 0.0 W/m2
20:09 59.7 °F /  15.4 °C 52.8 °F /  11.6 °C 30.39in /  1029hPa West 10.4mph /  16.7km/h   78% 0.00in /  0mm 0.0 W/m2
20:14 59.7 °F /  15.4 °C 52.8 °F /  11.6 °C 30.39in /  1029hPa West 10.4mph /  16.7km/h   78% 0.00in /  0mm 0.0 W/m2
20:19 59.6 °F /  15.3 °C 52.7 °F /  11.5 °C 30.39in /  1029hPa West 10.4mph /  16.7km/h   78% 0.00in /  0mm 0.0 W/m2
20:24 59.5 °F /  15.3 °C 52.6 °F /  11.4 °C 30.39in /  1029hPa West 10.4mph /  16.7km/h   78% 0.00in /  0mm 0.0 W/m2
20:29 59.5 °F /  15.3 °C 52.6 °F /  11.4 °C 30.39in /  1029hPa West 10.4mph /  16.7km/h   78% 0.00in /  0mm 0.0 W/m2
20:34 59.5 °F /  15.3 °C 52.6 °F /  11.4 °C 30.39in /  1029hPa West 10.4mph /  16.7km/h   78% 0.00in /  0mm 0.0 W/m2
20:39 59.4 °F /  15.2 °C 52.5 °F /  11.4 °C 30.39in /  1029hPa West 10.4mph /  16.7km/h   78% 0.00in /  0mm 0.0 W/m2
20:44 59.5 °F /  15.3 °C 52.6 °F /  11.4 °C 30.39in /  1029hPa West 10.4mph /  16.7km/h   78% 0.00in /  0mm 0.0 W/m2
20:49 59.4 °F /  15.2 °C 52.5 °F /  11.4 °C 30.39in /  1029hPa West 10.4mph /  16.7km/h   78% 0.00in /  0mm 0.0 W/m2
20:54 59.4 °F /  15.2 °C 52.5 °F /  11.4 °C 30.39in /  1029hPa West 10.4mph /  16.7km/h   78% 0.00in /  0mm 0.0 W/m2
21:00 59.4 °F /  15.2 °C 52.5 °F /  11.4 °C 30.39in /  1029hPa West 10.4mph /  16.7km/h   78% 0.00in /  0mm 0.0 W/m2
21:05 59.3 °F /  15.2 °C 52.4 °F /  11.3 °C 30.39in /  1029hPa West 10.4mph /  16.7km/h   78% 0.00in /  0mm 0.0 W/m2
21:10 59.3 °F /  15.2 °C 52.4 °F /  11.3 °C 30.39in /  1029hPa West 10.4mph /  16.7km/h   78% 0.00in /  0mm 0.0 W/m2
21:15 59.3 °F /  15.2 °C 52.4 °F /  11.3 °C 30.39in /  1029hPa West 10.4mph /  16.7km/h   78% 0.00in /  0mm 0.0 W/m2
21:20 59.3 °F /  15.2 °C 52.8 °F /  11.6 °C 30.39in /  1029hPa West 10.4mph /  16.7km/h   79% 0.00in /  0mm 0.0 W/m2
21:25 59.2 °F /  15.1 °C 52.7 °F /  11.5 °C 30.39in /  1029hPa West 10.4mph /  16.7km/h   79% 0.00in /  0mm 0.0 W/m2
21:30 59.2 °F /  15.1 °C 52.7 °F /  11.5 °C 30.39in /  1029hPa West 10.4mph /  16.7km/h   79% 0.00in /  0mm 0.0 W/m2
21:35 59.1 °F /  15.1 °C 52.6 °F /  11.4 °C 30.39in /  1029hPa West 10.4mph /  16.7km/h   79% 0.00in /  0mm 0.0 W/m2
21:41 59.1 °F /  15.1 °C 52.6 °F /  11.4 °C 30.39in /  1029hPa West 10.4mph /  16.7km/h   79% 0.00in /  0mm 0.0 W/m2
21:46 59.1 °F /  15.1 °C 52.6 °F /  11.4 °C 30.39in /  1029hPa West 10.4mph /  16.7km/h   79% 0.00in /  0mm 0.0 W/m2
21:51 59.0 °F /  15 °C 52.5 °F /  11.4 °C 30.39in /  1029hPa West 10.4mph /  16.7km/h   79% 0.00in /  0mm 0.0 W/m2
21:56 58.9 °F /  14.9 °C 52.4 °F /  11.3 °C 30.39in /  1029hPa West 10.4mph /  16.7km/h   79% 0.00in /  0mm 0.0 W/m2
22:01 58.7 °F /  14.8 °C 52.2 °F /  11.2 °C 30.39in /  1029hPa West 10.4mph /  16.7km/h   79% 0.00in /  0mm 0.0 W/m2
22:06 58.5 °F /  14.7 °C 52.0 °F /  11.1 °C 30.38in /  1028.7hPa West 10.4mph /  16.7km/h   79% 0.00in /  0mm 0.0 W/m2
22:11 58.3 °F /  14.6 °C 52.2 °F /  11.2 °C 30.38in /  1028.7hPa West 10.4mph /  16.7km/h   80% 0.00in /  0mm 0.0 W/m2
22:16 58.1 °F /  14.5 °C 52.0 °F /  11.1 °C 30.38in /  1028.7hPa West 10.4mph /  16.7km/h   80% 0.00in /  0mm 0.0 W/m2
22:21 57.9 °F /  14.4 °C 51.8 °F /  11 °C 30.38in /  1028.7hPa West 10.4mph /  16.7km/h   80% 0.00in /  0mm 0.0 W/m2
22:26 57.6 °F /  14.2 °C 51.8 °F /  11 °C 30.38in /  1028.7hPa West 10.4mph /  16.7km/h   81% 0.00in /  0mm 0.0 W/m2
22:31 57.5 °F /  14.2 °C 51.7 °F /  10.9 °C 30.38in /  1028.7hPa West 10.4mph /  16.7km/h   81% 0.00in /  0mm 0.0 W/m2
22:36 57.6 °F /  14.2 °C 51.8 °F /  11 °C 30.38in /  1028.7hPa West 10.4mph /  16.7km/h   81% 0.00in /  0mm 0.0 W/m2
22:41 57.6 °F /  14.2 °C 51.8 °F /  11 °C 30.38in /  1028.7hPa West 10.4mph /  16.7km/h   81% 0.00in /  0mm 0.0 W/m2
22:46 57.6 °F /  14.2 °C 51.5 °F /  10.8 °C 30.38in /  1028.7hPa West 10.4mph /  16.7km/h   80% 0.00in /  0mm 0.0 W/m2
22:51 57.6 °F /  14.2 °C 51.5 °F /  10.8 °C 30.38in /  1028.7hPa West 10.4mph /  16.7km/h   80% 0.00in /  0mm 0.0 W/m2
22:56 57.5 °F /  14.2 °C 51.4 °F /  10.8 °C 30.38in /  1028.7hPa West 10.4mph /  16.7km/h   80% 0.00in /  0mm 0.0 W/m2
23:01 57.2 °F /  14 °C 51.1 °F /  10.6 °C 30.38in /  1028.7hPa West 10.4mph /  16.7km/h   80% 0.00in /  0mm 0.0 W/m2
23:07 57.0 °F /  13.9 °C 51.2 °F /  10.7 °C 30.38in /  1028.7hPa West 10.4mph /  16.7km/h   81% 0.00in /  0mm 0.0 W/m2
23:12 56.8 °F /  13.8 °C 51.4 °F /  10.8 °C 30.38in /  1028.7hPa West 10.4mph /  16.7km/h   82% 0.00in /  0mm 0.0 W/m2
23:17 56.6 °F /  13.7 °C 51.2 °F /  10.7 °C 30.37in /  1028.3hPa West 10.4mph /  16.7km/h   82% 0.00in /  0mm 0.0 W/m2
23:22 56.4 °F /  13.6 °C 51.0 °F /  10.6 °C 30.37in /  1028.3hPa West 10.4mph /  16.7km/h   82% 0.00in /  0mm 0.0 W/m2
23:27 56.2 °F /  13.4 °C 51.1 °F /  10.6 °C 30.37in /  1028.3hPa West 10.4mph /  16.7km/h   83% 0.00in /  0mm 0.0 W/m2
23:32 55.6 °F /  13.1 °C 50.5 °F /  10.3 °C 30.37in /  1028.3hPa West 10.4mph /  16.7km/h   83% 0.00in /  0mm 0.0 W/m2
23:37 55.3 °F /  12.9 °C 50.5 °F /  10.3 °C 30.37in /  1028.3hPa West 10.4mph /  16.7km/h   84% 0.00in /  0mm 0.0 W/m2
23:42 55.3 °F /  12.9 °C 50.5 °F /  10.3 °C 30.37in /  1028.3hPa West 10.4mph /  16.7km/h   84% 0.00in /  0mm 0.0 W/m2
23:47 55.3 °F /  12.9 °C 50.5 °F /  10.3 °C 30.37in /  1028.3hPa North 10.4mph /  16.7km/h   84% 0.00in /  0mm 0.0 W/m2
23:52 55.3 °F /  12.9 °C 50.5 °F /  10.3 °C 30.36in /  1028hPa North 10.4mph /  16.7km/h   84% 0.00in /  0mm 0.0 W/m2
23:57 55.3 °F /  12.9 °C 50.5 °F /  10.3 °C 30.36in /  1028hPa North 10.4mph /  16.7km/h   84% 0.00in /  0mm 0.0 W/m2
Piedmont Bend
Compliments of Weather Underground - 4 mb